createdAt,value
2022-09-24T00:02:26.350Z,75.72
2022-09-24T00:05:37.963Z,76.23
2022-09-24T00:08:43.453Z,76.59
2022-09-24T00:11:50.637Z,76.19
2022-09-24T00:14:55.936Z,76.21
2022-09-24T00:18:02.277Z,76.11
2022-09-24T00:21:20.151Z,77.57
2022-09-24T00:24:44.077Z,76.78
2022-09-24T00:27:49.544Z,77.59
2022-09-24T00:30:59.376Z,76.98
2022-09-24T00:34:05.362Z,77.31
2022-09-24T00:37:11.371Z,76.96
2022-09-24T00:40:16.786Z,76.68
2022-09-24T00:43:28.257Z,76.56
2022-09-24T00:46:41.189Z,78.01
2022-09-24T00:49:49.922Z,76.72
2022-09-24T00:53:03.865Z,77.14
2022-09-24T00:56:15.805Z,76.61
2022-09-24T00:59:24.279Z,76.78
2022-09-24T01:02:31.304Z,75.95
2022-09-24T01:05:39.242Z,75.71
2022-09-24T01:08:46.258Z,75.61
2022-09-24T01:12:00.908Z,76.30
2022-09-24T01:15:27.531Z,75.66
2022-09-24T01:18:46.533Z,75.96
2022-09-24T01:22:02.055Z,75.73
2022-09-24T01:25:55.162Z,75.98
2022-09-24T01:29:32.340Z,75.85
2022-09-24T01:32:41.367Z,77.15
2022-09-24T01:35:55.784Z,76.37
2022-09-24T01:39:03.604Z,77.03
2022-09-24T01:42:12.236Z,76.82
2022-09-24T01:45:18.742Z,77.77
2022-09-24T01:48:24.434Z,76.03
2022-09-24T01:51:42.536Z,75.24
2022-09-24T01:54:52.517Z,76.26
2022-09-24T01:58:28.380Z,75.57
2022-09-24T02:01:46.446Z,76.12
2022-09-24T02:04:58.082Z,77.05
2022-09-24T02:08:31.301Z,76.47
2022-09-24T02:11:37.839Z,76.56
2022-09-24T02:14:51.928Z,76.80
2022-09-24T02:18:00.103Z,77.07
2022-09-24T02:21:12.883Z,77.41
2022-09-24T02:24:54.170Z,77.71
2022-09-24T02:27:59.437Z,78.57
2022-09-24T02:31:11.572Z,78.39
2022-09-24T02:34:22.256Z,78.86
2022-09-24T02:37:27.941Z,78.35
2022-09-24T02:40:33.886Z,79.24
2022-09-24T02:43:41.411Z,79.67
2022-09-24T02:46:47.812Z,79.43
2022-09-24T02:49:53.193Z,80.71
2022-09-24T02:52:59.083Z,81.43
2022-09-24T02:56:04.801Z,80.21
2022-09-24T02:59:10.974Z,80.75
2022-09-24T03:02:16.606Z,80.54
2022-09-24T03:05:22.293Z,80.82
2022-09-24T03:08:28.160Z,79.62
2022-09-24T03:11:35.943Z,80.87
2022-09-24T03:14:41.257Z,81.20
2022-09-24T03:17:46.870Z,81.04
2022-09-24T03:21:00.800Z,81.88
2022-09-24T03:24:06.703Z,81.15
2022-09-24T03:27:12.356Z,80.49
2022-09-24T03:30:36.472Z,80.11
2022-09-24T03:33:47.865Z,80.75
2022-09-24T03:36:53.200Z,81.11
2022-09-24T03:39:58.680Z,81.53
2022-09-24T03:43:03.913Z,81.53
2022-09-24T03:46:11.399Z,81.26
2022-09-24T03:49:17.623Z,81.25
2022-09-24T03:52:24.583Z,82.68
2022-09-24T03:55:29.926Z,82.09
2022-09-24T03:58:38.329Z,82.44
2022-09-24T04:01:43.901Z,82.16
2022-09-24T04:04:49.903Z,82.72
2022-09-24T04:07:55.624Z,83.21
2022-09-24T04:11:01.448Z,83.79
2022-09-24T04:14:07.212Z,84.41
2022-09-24T04:17:14.540Z,84.80
2022-09-24T04:20:23.057Z,85.55
2022-09-24T04:23:31.454Z,84.90
2022-09-24T04:26:37.250Z,83.84
2022-09-24T04:29:43.190Z,84.23
2022-09-24T04:32:49.360Z,83.84
2022-09-24T04:35:54.470Z,83.56
2022-09-24T04:38:59.939Z,84.39
2022-09-24T04:42:05.358Z,84.17
2022-09-24T04:45:11.713Z,83.85
2022-09-24T04:48:17.603Z,83.92
2022-09-24T04:51:22.990Z,84.52
2022-09-24T04:54:30.279Z,85.79
2022-09-24T04:57:36.836Z,86.58
2022-09-24T05:00:43.771Z,86.18
2022-09-24T05:03:50.656Z,87.08
2022-09-24T05:06:56.556Z,87.47
2022-09-24T05:10:02.240Z,87.25
2022-09-24T05:13:08.272Z,87.42
2022-09-24T05:16:13.845Z,87.69
2022-09-24T05:19:18.953Z,86.35
2022-09-24T05:22:27.722Z,85.41
2022-09-24T05:25:33.557Z,85.63
2022-09-24T05:28:40.538Z,85.81
2022-09-24T05:31:46.268Z,85.88
2022-09-24T05:34:52.797Z,85.01
2022-09-24T05:37:58.285Z,85.36
2022-09-24T05:41:04.205Z,83.88
2022-09-24T05:44:11.596Z,83.80
2022-09-24T05:47:18.313Z,83.71
2022-09-24T05:50:24.217Z,83.77
2022-09-24T05:53:29.534Z,83.63
2022-09-24T05:56:35.098Z,83.79
2022-09-24T05:59:40.577Z,84.70
2022-09-24T06:02:46.379Z,83.40
2022-09-24T06:05:56.658Z,83.73
2022-09-24T06:09:02.104Z,83.12
2022-09-24T06:12:08.643Z,84.02
2022-09-24T06:15:14.449Z,83.71
2022-09-24T06:18:20.119Z,82.75
2022-09-24T06:21:25.640Z,82.94
2022-09-24T06:24:31.910Z,83.15
2022-09-24T06:27:37.594Z,82.83
2022-09-24T06:30:43.351Z,82.45
2022-09-24T06:33:48.651Z,82.56
2022-09-24T06:36:55.540Z,82.58
2022-09-24T06:40:00.739Z,82.57
2022-09-24T06:43:07.150Z,82.56
2022-09-24T06:46:14.695Z,83.02
2022-09-24T06:49:19.823Z,83.13
2022-09-24T06:52:24.993Z,82.90
2022-09-24T06:55:30.205Z,82.11
2022-09-24T06:58:35.329Z,81.35
2022-09-24T07:01:40.801Z,80.85
2022-09-24T07:04:46.324Z,78.87
2022-09-24T07:07:51.608Z,78.81
2022-09-24T07:10:57.118Z,78.20
2022-09-24T07:14:02.548Z,77.79
2022-09-24T07:17:08.273Z,76.89
2022-09-24T07:20:13.794Z,75.58
2022-09-24T07:23:19.119Z,74.29
2022-09-24T07:26:24.176Z,72.85
2022-09-24T07:29:29.212Z,72.68
2022-09-24T07:32:35.154Z,70.65
2022-09-24T07:35:41.083Z,70.73
2022-09-24T07:38:46.840Z,70.57
2022-09-24T07:41:52.787Z,70.28
2022-09-24T07:44:58.392Z,69.82
2022-09-24T07:48:06.210Z,69.54
2022-09-24T07:51:11.925Z,69.84
2022-09-24T07:54:17.570Z,68.79
2022-09-24T07:57:23.449Z,68.78
2022-09-24T08:00:28.761Z,68.41
2022-09-24T08:03:34.459Z,69.20
2022-09-24T08:06:45.008Z,69.19
2022-09-24T08:09:53.000Z,68.69
2022-09-24T08:13:02.619Z,68.14
2022-09-24T08:16:08.448Z,68.93
2022-09-24T08:19:14.594Z,68.86
2022-09-24T08:22:20.365Z,68.55
2022-09-24T08:25:26.539Z,67.18
2022-09-24T08:28:32.334Z,67.24
2022-09-24T08:31:38.125Z,66.88
2022-09-24T08:34:43.517Z,66.94
2022-09-24T08:37:48.934Z,67.19
2022-09-24T08:40:57.386Z,66.93
2022-09-24T08:44:45.740Z,66.58
2022-09-24T08:48:15.986Z,67.46
2022-09-24T08:51:23.233Z,67.66
2022-09-24T08:54:33.284Z,67.51
2022-09-24T08:57:51.096Z,68.07
2022-09-24T09:01:10.496Z,68.87
2022-09-24T09:04:28.164Z,69.12
2022-09-24T09:07:58.688Z,69.10
2022-09-24T09:11:07.451Z,70.54
2022-09-24T09:14:57.303Z,68.76
2022-09-24T09:18:21.091Z,70.01
2022-09-24T09:22:10.538Z,69.48
2022-09-24T09:25:30.114Z,68.87
2022-09-24T09:28:35.419Z,69.87
2022-09-24T09:31:56.487Z,69.32
2022-09-24T09:35:05.474Z,69.96
2022-09-24T09:38:28.261Z,70.23
2022-09-24T09:42:04.588Z,70.30
2022-09-24T09:45:45.383Z,70.66
2022-09-24T09:48:54.676Z,69.72
2022-09-24T09:52:04.985Z,70.14
2022-09-24T09:55:25.568Z,69.70
2022-09-24T09:58:41.993Z,69.01
2022-09-24T10:01:56.191Z,69.49
2022-09-24T10:05:04.877Z,69.06
2022-09-24T10:08:22.434Z,69.19
2022-09-24T10:11:28.129Z,69.86
2022-09-24T10:14:33.923Z,70.08
2022-09-24T10:17:41.073Z,69.42
2022-09-24T10:20:52.387Z,69.57
2022-09-24T10:24:04.115Z,69.64
2022-09-24T10:27:14.860Z,69.03
2022-09-24T10:30:36.139Z,68.97
2022-09-24T10:33:45.709Z,68.09
2022-09-24T10:36:53.651Z,68.03
2022-09-24T10:40:10.871Z,68.67
2022-09-24T10:43:19.683Z,67.72
2022-09-24T10:47:08.613Z,67.38
2022-09-24T10:50:43.530Z,67.22
2022-09-24T10:54:16.219Z,67.73
2022-09-24T10:57:42.604Z,66.84
2022-09-24T11:01:13.953Z,66.95
2022-09-24T11:04:39.132Z,66.91
2022-09-24T11:07:53.150Z,67.04
2022-09-24T11:11:38.802Z,66.93
2022-09-24T11:15:04.665Z,66.25
2022-09-24T11:19:01.310Z,65.38
2022-09-24T11:22:16.410Z,66.04
2022-09-24T11:25:51.303Z,67.36
2022-09-24T11:29:36.879Z,66.60
2022-09-24T11:33:02.407Z,70.68
2022-09-24T11:36:10.755Z,77.49
2022-09-24T11:39:45.355Z,76.23
2022-09-24T11:43:33.548Z,74.98
2022-09-24T11:47:02.434Z,78.25
2022-09-24T11:50:29.564Z,76.05
2022-09-24T11:53:54.546Z,77.81
2022-09-24T11:57:12.170Z,78.63
2022-09-24T12:00:20.884Z,78.40
2022-09-24T12:03:58.799Z,78.75
2022-09-24T12:07:15.504Z,80.38
2022-09-24T12:11:04.172Z,79.59
2022-09-24T12:14:47.766Z,81.77
2022-09-24T12:18:03.731Z,79.58
2022-09-24T12:21:23.089Z,79.11
2022-09-24T12:24:42.156Z,79.11
2022-09-24T12:27:48.848Z,80.21
2022-09-24T12:31:19.291Z,76.51
2022-09-24T12:34:51.174Z,76.67
2022-09-24T12:38:14.382Z,77.70
2022-09-24T12:41:29.670Z,77.01
2022-09-24T12:44:44.319Z,78.34
2022-09-24T12:47:57.416Z,76.90
2022-09-24T12:51:05.760Z,76.26
2022-09-24T12:54:31.448Z,76.79
2022-09-24T12:57:42.028Z,76.73
2022-09-24T13:00:47.921Z,76.11
2022-09-24T13:04:15.880Z,75.75
2022-09-24T13:08:02.125Z,75.53
2022-09-24T13:11:31.218Z,76.27
2022-09-24T13:14:37.296Z,76.15
2022-09-24T13:17:45.630Z,74.74
2022-09-24T13:21:01.065Z,74.82
2022-09-24T13:24:12.929Z,75.53
2022-09-24T13:27:32.161Z,74.15
2022-09-24T13:30:42.118Z,74.32
2022-09-24T13:33:51.910Z,74.52
2022-09-24T13:37:15.646Z,74.52
2022-09-24T13:40:29.279Z,73.84
2022-09-24T13:44:07.529Z,74.03
2022-09-24T13:47:17.107Z,74.03
2022-09-24T13:50:44.787Z,73.74
2022-09-24T13:54:13.444Z,74.00
2022-09-24T13:57:27.021Z,73.90
2022-09-24T14:00:38.840Z,75.51
2022-09-24T14:03:59.262Z,75.73
2022-09-24T14:07:04.895Z,76.13
2022-09-24T14:10:15.103Z,75.44
2022-09-24T14:13:25.309Z,75.73
2022-09-24T14:16:30.375Z,75.46
2022-09-24T14:19:36.524Z,76.46
2022-09-24T14:22:46.658Z,76.88
2022-09-24T14:25:53.674Z,76.94
2022-09-24T14:29:03.995Z,77.42
2022-09-24T14:32:21.034Z,78.00
2022-09-24T14:35:33.277Z,79.02
2022-09-24T14:38:54.741Z,80.44
2022-09-24T14:42:00.468Z,81.78
2022-09-24T14:45:08.923Z,83.33
2022-09-24T14:48:28.896Z,86.60
2022-09-24T14:51:36.077Z,87.65
2022-09-24T14:54:41.430Z,88.03
2022-09-24T14:57:50.924Z,89.14
2022-09-24T15:01:07.581Z,90.05
2022-09-24T15:04:27.048Z,90.42
2022-09-24T15:07:34.167Z,90.37
2022-09-24T15:10:40.506Z,92.43
2022-09-24T15:13:48.267Z,93.34
2022-09-24T15:16:55.751Z,92.92
2022-09-24T15:20:02.984Z,95.41
2022-09-24T15:23:08.975Z,95.03
2022-09-24T15:26:14.624Z,96.12
2022-09-24T15:29:24.475Z,95.58
2022-09-24T15:32:35.313Z,96.17
2022-09-24T15:35:41.487Z,95.07
2022-09-24T15:38:48.443Z,94.80
2022-09-24T15:41:54.627Z,93.87
2022-09-24T15:45:00.361Z,95.19
2022-09-24T15:48:07.532Z,96.92
2022-09-24T15:51:18.042Z,96.96
2022-09-24T15:54:25.055Z,96.48
2022-09-24T15:57:31.024Z,97.21
2022-09-24T16:00:36.604Z,99.08
2022-09-24T16:03:41.899Z,97.26
2022-09-24T16:06:47.413Z,97.29
2022-09-24T16:09:53.348Z,98.01
2022-09-24T16:12:58.615Z,98.62
2022-09-24T16:16:08.188Z,100.00
2022-09-24T16:19:13.887Z,99.66
2022-09-24T16:22:20.698Z,100.00
2022-09-24T16:25:27.989Z,100.00
2022-09-24T16:28:33.742Z,100.00
2022-09-24T16:31:39.342Z,100.00
2022-09-24T16:34:44.890Z,100.00
2022-09-24T16:37:50.747Z,100.00
2022-09-24T16:41:03.852Z,100.00
2022-09-24T16:44:15.442Z,100.00
2022-09-24T16:47:20.948Z,100.00
2022-09-24T16:50:27.388Z,100.00
2022-09-24T16:53:35.123Z,100.00
2022-09-24T16:56:40.917Z,100.00
2022-09-24T16:59:46.900Z,100.00
2022-09-24T17:02:52.761Z,100.00
2022-09-24T17:05:58.646Z,100.00
2022-09-24T17:09:22.926Z,100.00
2022-09-24T17:12:28.320Z,100.00
2022-09-24T17:15:35.461Z,100.00
2022-09-24T17:18:41.689Z,100.00
2022-09-24T17:21:50.797Z,100.00
2022-09-24T17:24:56.550Z,100.00
2022-09-24T17:28:03.484Z,100.00
2022-09-24T17:31:11.838Z,100.00
2022-09-24T17:34:17.640Z,100.00
2022-09-24T17:37:24.083Z,100.00
2022-09-24T17:40:29.816Z,100.00
2022-09-24T17:43:36.336Z,100.00
2022-09-24T17:46:42.074Z,100.00
2022-09-24T17:49:47.744Z,100.00
2022-09-24T17:52:53.400Z,100.00
2022-09-24T17:55:59.472Z,100.00
2022-09-24T17:59:07.881Z,100.00
2022-09-24T18:02:14.303Z,100.00
2022-09-24T18:05:23.027Z,100.00
2022-09-24T18:08:32.112Z,100.00
2022-09-24T18:11:45.421Z,100.00
2022-09-24T18:14:54.129Z,100.00
2022-09-24T18:18:08.987Z,100.00
2022-09-24T18:21:17.005Z,100.00
2022-09-24T18:24:32.066Z,100.00
2022-09-24T18:27:43.286Z,100.00
2022-09-24T18:31:06.444Z,100.00
2022-09-24T18:34:20.405Z,100.00
2022-09-24T18:37:27.618Z,100.00
2022-09-24T18:40:33.961Z,100.00
2022-09-24T18:43:51.379Z,100.00
2022-09-24T18:47:05.821Z,100.00
2022-09-24T18:50:12.910Z,100.00
2022-09-24T18:53:26.284Z,100.00
2022-09-24T18:56:41.872Z,100.00
2022-09-24T18:59:50.960Z,100.00
2022-09-24T19:03:03.313Z,100.00
2022-09-24T19:06:16.908Z,100.00
2022-09-24T19:09:23.162Z,100.00
2022-09-24T19:12:30.238Z,100.00
2022-09-24T19:15:51.121Z,100.00
2022-09-24T19:23:26.695Z,100.00
2022-09-24T19:26:34.308Z,100.00
2022-09-24T19:29:40.529Z,100.00
2022-09-24T19:32:47.044Z,100.00
2022-09-24T19:35:58.331Z,100.00
2022-09-24T19:39:07.594Z,100.00
2022-09-24T19:42:17.242Z,100.00
2022-09-24T19:45:30.740Z,100.00
2022-09-24T19:48:42.842Z,100.00
2022-09-24T19:51:52.718Z,100.00
2022-09-24T19:55:08.585Z,100.00
2022-09-24T19:58:16.466Z,100.00
2022-09-24T20:01:28.063Z,100.00
2022-09-24T20:04:38.008Z,100.00
2022-09-24T20:07:46.098Z,100.00
2022-09-24T20:10:51.657Z,100.00
2022-09-24T20:13:57.762Z,100.00
2022-09-24T20:17:03.238Z,100.00
2022-09-24T20:20:09.393Z,100.00
2022-09-24T20:23:14.827Z,100.00
2022-09-24T20:26:38.577Z,100.00
2022-09-24T20:29:44.560Z,100.00
2022-09-24T20:32:51.549Z,100.00
2022-09-24T20:36:03.108Z,100.00
2022-09-24T20:39:08.852Z,100.00
2022-09-24T20:42:16.078Z,100.00
2022-09-24T20:45:24.249Z,100.00
2022-09-24T20:48:32.541Z,100.00
2022-09-24T20:51:39.572Z,100.00
2022-09-24T20:54:51.134Z,100.00
2022-09-24T20:58:00.696Z,100.00
2022-09-24T21:01:07.537Z,100.00
2022-09-24T21:04:13.475Z,100.00
2022-09-24T21:07:19.568Z,100.00
2022-09-24T21:10:25.433Z,100.00
2022-09-24T21:13:33.314Z,100.00
2022-09-24T21:16:41.482Z,100.00
2022-09-24T21:19:47.268Z,100.00
2022-09-24T21:22:52.677Z,100.00
2022-09-24T21:26:09.453Z,100.00
2022-09-24T21:29:17.727Z,100.00
2022-09-24T21:32:23.144Z,100.00
2022-09-24T21:35:28.906Z,100.00
2022-09-24T21:38:34.261Z,100.00
2022-09-24T21:41:39.818Z,100.00
2022-09-24T21:44:47.499Z,100.00
2022-09-24T21:47:55.130Z,100.00
2022-09-24T21:51:12.665Z,100.00
2022-09-24T21:54:18.470Z,100.00
2022-09-24T21:57:24.628Z,100.00
2022-09-24T22:00:30.206Z,100.00
2022-09-24T22:03:35.775Z,100.00
2022-09-24T22:06:41.255Z,100.00
2022-09-24T22:09:46.829Z,100.00
2022-09-24T22:12:52.648Z,100.00
2022-09-24T22:16:00.170Z,100.00
2022-09-24T22:19:07.813Z,100.00
2022-09-24T22:22:13.579Z,100.00
2022-09-24T22:25:19.043Z,100.00
2022-09-24T22:28:26.798Z,100.00
2022-09-24T22:31:32.574Z,100.00
2022-09-24T22:34:55.783Z,100.00
2022-09-24T22:38:01.698Z,100.00
2022-09-24T22:41:11.223Z,100.00
2022-09-24T22:44:17.075Z,100.00
2022-09-24T22:47:22.792Z,100.00
2022-09-24T22:50:28.503Z,100.00
2022-09-24T22:53:35.665Z,100.00
2022-09-24T22:56:41.482Z,100.00
2022-09-24T22:59:47.005Z,100.00
2022-09-24T23:02:52.708Z,100.00
2022-09-24T23:06:00.678Z,100.00
2022-09-24T23:09:06.053Z,100.00
2022-09-24T23:12:12.145Z,100.00
2022-09-24T23:15:17.944Z,100.00
2022-09-24T23:18:23.561Z,100.00
2022-09-24T23:21:32.149Z,100.00
2022-09-24T23:24:37.249Z,100.00
2022-09-24T23:27:42.707Z,100.00
2022-09-24T23:30:58.070Z,100.00
2022-09-24T23:34:07.927Z,100.00
2022-09-24T23:37:12.991Z,100.00
2022-09-24T23:40:18.188Z,100.00
2022-09-24T23:43:23.636Z,100.00
2022-09-24T23:46:29.615Z,100.00
2022-09-24T23:49:35.004Z,100.00
2022-09-24T23:52:40.527Z,100.00
2022-09-24T23:55:48.705Z,100.00
2022-09-24T23:58:55.459Z,100.00
